createdAt,value
2019-02-24T00:00:38.198Z,9.83
2019-02-24T00:03:09.347Z,8.90
2019-02-24T00:05:40.356Z,9.48
2019-02-24T00:08:12.184Z,4.05
2019-02-24T00:10:42.153Z,7.58
2019-02-24T00:13:14.202Z,16.17
2019-02-24T00:15:53.068Z,7.10
2019-02-24T00:18:22.764Z,6.78
2019-02-24T00:20:52.456Z,4.35
2019-02-24T00:23:22.153Z,5.95
2019-02-24T00:25:51.840Z,9.68
2019-02-24T00:28:21.548Z,6.75
2019-02-24T00:30:51.244Z,11.90
2019-02-24T00:33:21.202Z,7.35
2019-02-24T00:35:53.284Z,4.22
2019-02-24T00:38:24.326Z,12.63
2019-02-24T00:40:54.457Z,9.13
2019-02-24T00:43:25.356Z,4.47
2019-02-24T00:45:55.292Z,9.08
2019-02-24T00:48:25.396Z,7.67
2019-02-24T00:50:55.233Z,5.87
2019-02-24T00:53:25.249Z,7.25
2019-02-24T00:55:55.076Z,10.98
2019-02-24T00:58:25.026Z,7.08
2019-02-24T01:00:55.180Z,5.28
2019-02-24T01:03:26.897Z,4.80
2019-02-24T01:05:56.873Z,4.90
2019-02-24T01:08:28.966Z,3.52
2019-02-24T01:11:02.318Z,4.58
2019-02-24T01:13:32.442Z,5.60
2019-02-24T01:16:02.548Z,7.90
2019-02-24T01:18:32.445Z,6.55
2019-02-24T01:21:02.140Z,5.33
2019-02-24T01:23:32.985Z,4.72
2019-02-24T01:26:03.086Z,6.00
2019-02-24T01:28:32.929Z,6.90
2019-02-24T01:31:02.877Z,3.42
2019-02-24T01:33:32.724Z,5.62
2019-02-24T01:36:14.808Z,7.40
2019-02-24T01:38:45.690Z,5.75
2019-02-24T01:41:15.786Z,5.95
2019-02-24T01:43:47.841Z,5.17
2019-02-24T01:46:28.464Z,7.92
2019-02-24T01:48:58.433Z,6.10
2019-02-24T01:51:35.216Z,7.33
2019-02-24T01:54:05.044Z,6.83
2019-02-24T01:56:41.021Z,3.90
2019-02-24T01:59:10.980Z,6.37
2019-02-24T02:01:46.906Z,4.80
2019-02-24T02:04:22.384Z,9.05
2019-02-24T02:06:57.887Z,12.58
2019-02-24T02:09:31.501Z,7.00
2019-02-24T02:12:01.451Z,6.95
2019-02-24T02:14:32.478Z,7.42
2019-02-24T02:17:02.570Z,6.15
2019-02-24T02:19:32.410Z,6.80
2019-02-24T02:22:10.332Z,3.02
2019-02-24T02:24:42.296Z,5.47
2019-02-24T02:27:12.116Z,8.05
2019-02-24T02:29:42.098Z,8.03
2019-02-24T02:32:11.930Z,3.90
2019-02-24T02:34:44.897Z,4.65
2019-02-24T02:37:14.792Z,4.78
2019-02-24T02:39:44.480Z,4.05
2019-02-24T02:42:14.447Z,4.10
2019-02-24T02:44:49.775Z,4.20
2019-02-24T02:47:19.615Z,10.93
2019-02-24T02:49:50.289Z,9.85
2019-02-24T02:52:20.254Z,5.95
2019-02-24T02:54:50.356Z,6.00
2019-02-24T02:57:20.458Z,7.50
2019-02-24T02:59:50.578Z,8.80
2019-02-24T03:02:28.726Z,10.43
2019-02-24T03:04:58.822Z,4.15
2019-02-24T03:07:30.293Z,8.03
2019-02-24T03:10:09.057Z,5.12
2019-02-24T03:12:39.082Z,7.67
2019-02-24T03:15:09.888Z,3.98
2019-02-24T03:17:39.850Z,5.37
2019-02-24T03:20:14.069Z,3.50
2019-02-24T03:22:44.398Z,4.83
2019-02-24T03:25:14.224Z,9.03
2019-02-24T03:27:45.144Z,10.93
2019-02-24T03:30:15.243Z,5.03
2019-02-24T03:32:45.988Z,2.62
2019-02-24T03:35:22.883Z,2.80
2019-02-24T03:37:52.724Z,5.85
2019-02-24T03:40:23.404Z,4.37
2019-02-24T03:42:53.346Z,3.58
2019-02-24T03:45:23.456Z,3.22
2019-02-24T03:47:54.442Z,4.65
2019-02-24T03:50:24.550Z,1.85
2019-02-24T03:52:54.484Z,2.37
2019-02-24T03:55:24.502Z,7.10
2019-02-24T03:57:55.728Z,4.22
2019-02-24T04:00:28.902Z,3.17
2019-02-24T04:02:59.014Z,7.87
2019-02-24T04:05:29.152Z,4.80
2019-02-24T04:07:58.981Z,2.85
2019-02-24T04:10:28.937Z,4.03
2019-02-24T04:13:07.777Z,2.52
2019-02-24T04:15:37.893Z,6.12
2019-02-24T04:18:07.780Z,3.47
2019-02-24T04:20:37.464Z,2.50
2019-02-24T04:23:07.161Z,5.83
2019-02-24T04:25:36.842Z,5.47
2019-02-24T04:28:07.788Z,5.17
2019-02-24T04:30:38.137Z,5.45
2019-02-24T04:33:10.250Z,3.98
2019-02-24T04:35:40.358Z,2.52
2019-02-24T04:38:16.033Z,1.87
2019-02-24T04:40:46.267Z,4.37
2019-02-24T04:43:16.358Z,1.90
2019-02-24T04:45:47.334Z,3.25
2019-02-24T04:48:17.427Z,4.05
2019-02-24T04:50:47.526Z,4.20
2019-02-24T04:53:18.273Z,5.03
2019-02-24T04:55:53.952Z,4.40
2019-02-24T04:58:23.776Z,4.30
2019-02-24T05:00:53.741Z,6.97
2019-02-24T05:03:30.533Z,3.42
2019-02-24T05:06:00.641Z,2.65
2019-02-24T05:08:30.477Z,2.47
2019-02-24T05:11:06.290Z,4.60
2019-02-24T05:13:36.505Z,3.52
2019-02-24T05:16:06.602Z,1.87
2019-02-24T05:18:37.626Z,4.40
2019-02-24T05:21:07.723Z,2.75
2019-02-24T05:23:37.832Z,3.67
2019-02-24T05:26:10.647Z,3.98
2019-02-24T05:28:40.594Z,7.40
2019-02-24T05:31:14.993Z,6.22
2019-02-24T05:33:48.117Z,5.95
2019-02-24T05:36:18.208Z,5.40
2019-02-24T05:38:48.307Z,3.33
2019-02-24T05:41:18.416Z,3.65
2019-02-24T05:43:48.250Z,4.30
2019-02-24T05:46:18.211Z,10.25
2019-02-24T05:48:48.312Z,3.20
2019-02-24T05:51:18.433Z,1.82
2019-02-24T05:53:50.762Z,2.47
2019-02-24T05:56:20.851Z,3.95
2019-02-24T05:58:50.950Z,2.77
2019-02-24T06:01:23.030Z,4.30
2019-02-24T06:03:52.832Z,6.75
2019-02-24T06:06:23.812Z,2.58
2019-02-24T06:08:53.501Z,3.45
2019-02-24T06:11:23.463Z,3.75
2019-02-24T06:13:53.898Z,5.45
2019-02-24T06:16:25.726Z,5.28
2019-02-24T06:18:55.429Z,5.40
2019-02-24T06:21:25.413Z,2.60
2019-02-24T06:23:55.522Z,5.12
2019-02-24T06:26:25.629Z,2.50
2019-02-24T06:28:57.702Z,4.55
2019-02-24T06:31:27.809Z,3.55
2019-02-24T06:33:57.906Z,3.47
2019-02-24T06:36:30.011Z,6.45
2019-02-24T06:39:00.100Z,9.73
2019-02-24T06:41:29.937Z,3.40
2019-02-24T06:43:59.896Z,2.37
2019-02-24T06:46:29.722Z,7.70
2019-02-24T06:48:59.695Z,5.20
2019-02-24T06:51:29.791Z,3.45
2019-02-24T06:54:01.846Z,3.12
2019-02-24T06:56:44.929Z,2.67
2019-02-24T06:59:14.879Z,10.18
2019-02-24T07:01:45.030Z,2.50
2019-02-24T07:04:15.125Z,5.42
2019-02-24T07:06:46.576Z,5.22
2019-02-24T07:09:25.192Z,4.55
2019-02-24T07:11:56.152Z,6.12
2019-02-24T07:14:29.896Z,6.80
2019-02-24T07:16:59.854Z,8.85
2019-02-24T07:19:29.921Z,5.95
2019-02-24T07:22:00.178Z,5.30
2019-02-24T07:24:29.997Z,4.62
2019-02-24T07:27:00.229Z,3.80
2019-02-24T07:29:30.049Z,3.90
2019-02-24T07:32:00.009Z,5.58
2019-02-24T07:34:29.856Z,6.45
2019-02-24T07:36:59.828Z,7.67
2019-02-24T07:39:29.653Z,3.55
2019-02-24T07:41:59.639Z,5.33
2019-02-24T07:44:29.746Z,4.10
2019-02-24T07:46:59.850Z,3.65
2019-02-24T07:49:29.713Z,3.25
2019-02-24T07:51:59.664Z,7.17
2019-02-24T07:54:29.761Z,4.83
2019-02-24T07:56:59.857Z,4.15
2019-02-24T07:59:29.708Z,7.92
2019-02-24T08:01:59.657Z,4.33
2019-02-24T08:04:29.493Z,5.10
2019-02-24T08:06:59.477Z,5.58
2019-02-24T08:09:32.093Z,4.00
2019-02-24T08:12:03.136Z,2.87
2019-02-24T08:14:33.089Z,3.90
2019-02-24T08:17:03.182Z,3.98
2019-02-24T08:19:33.000Z,5.75
2019-02-24T08:22:02.684Z,2.90
2019-02-24T08:24:32.649Z,3.27
2019-02-24T08:27:02.739Z,8.20
2019-02-24T08:29:32.564Z,3.35
2019-02-24T08:32:02.253Z,9.60
2019-02-24T08:34:31.949Z,3.72
2019-02-24T08:37:01.915Z,7.35
2019-02-24T08:39:31.785Z,4.72
2019-02-24T08:42:01.765Z,6.58
2019-02-24T08:44:31.753Z,4.20
2019-02-24T08:47:01.562Z,7.25
2019-02-24T08:49:31.405Z,7.42
2019-02-24T08:52:03.351Z,11.65
2019-02-24T08:54:33.442Z,5.25
2019-02-24T08:57:05.276Z,3.90
2019-02-24T08:59:35.237Z,7.53
2019-02-24T09:02:05.345Z,5.30
2019-02-24T09:04:40.750Z,11.65
2019-02-24T09:07:11.785Z,5.50
2019-02-24T09:09:42.858Z,6.03
2019-02-24T09:12:18.937Z,10.38
2019-02-24T09:14:49.121Z,4.42
2019-02-24T09:17:19.937Z,4.58
2019-02-24T09:19:51.463Z,7.37
2019-02-24T09:22:26.422Z,4.12
2019-02-24T09:25:03.382Z,4.28
2019-02-24T09:27:36.341Z,5.30
2019-02-24T09:30:11.542Z,7.00
2019-02-24T09:32:41.566Z,5.03
2019-02-24T09:35:11.475Z,4.67
2019-02-24T09:37:41.430Z,4.33
2019-02-24T09:40:13.933Z,3.83
2019-02-24T09:42:45.969Z,5.13
2019-02-24T09:45:16.061Z,9.23
2019-02-24T09:47:48.905Z,3.03
2019-02-24T09:50:18.605Z,6.00
2019-02-24T09:52:50.270Z,6.10
2019-02-24T09:55:20.327Z,14.70
2019-02-24T09:57:50.406Z,7.50
2019-02-24T10:00:22.072Z,7.57
2019-02-24T10:02:52.320Z,6.03
2019-02-24T10:05:22.417Z,7.77
2019-02-24T10:07:53.445Z,5.63
2019-02-24T10:10:23.289Z,8.23
2019-02-24T10:12:53.238Z,7.23
2019-02-24T10:15:23.342Z,7.43
2019-02-24T10:17:53.465Z,4.80
2019-02-24T10:20:23.563Z,7.97
2019-02-24T10:22:53.385Z,7.13
2019-02-24T10:25:23.353Z,7.10
2019-02-24T10:27:53.592Z,7.90
2019-02-24T10:30:23.570Z,4.50
2019-02-24T10:32:55.597Z,4.30
2019-02-24T10:35:27.660Z,4.03
2019-02-24T10:37:57.518Z,5.93
2019-02-24T10:40:27.466Z,4.00
2019-02-24T10:42:57.313Z,4.83
2019-02-24T10:45:27.922Z,4.53
2019-02-24T10:47:57.877Z,6.33
2019-02-24T10:50:27.975Z,5.40
2019-02-24T10:52:57.801Z,4.57
2019-02-24T10:55:27.777Z,7.67
2019-02-24T10:57:57.610Z,6.47
2019-02-24T11:00:27.292Z,9.80
2019-02-24T11:02:57.010Z,6.47
2019-02-24T11:05:26.965Z,9.23
2019-02-24T11:07:57.139Z,10.40
2019-02-24T11:10:26.975Z,8.60
2019-02-24T11:12:57.815Z,10.23
2019-02-24T11:15:27.988Z,8.43
2019-02-24T11:17:57.860Z,10.20
2019-02-24T11:20:28.745Z,12.27
2019-02-24T11:23:17.900Z,8.30
2019-02-24T11:25:47.852Z,11.23
2019-02-24T11:28:17.809Z,11.50
2019-02-24T11:30:48.041Z,13.37
2019-02-24T11:33:17.865Z,19.87
2019-02-24T11:35:47.565Z,18.93
2019-02-24T11:38:17.257Z,12.00
2019-02-24T11:40:47.197Z,14.97
2019-02-24T11:43:17.813Z,11.10
2019-02-24T11:45:47.506Z,13.90
2019-02-24T11:48:17.226Z,10.70
2019-02-24T11:50:47.230Z,9.00
2019-02-24T11:53:18.005Z,14.20
2019-02-24T11:55:47.970Z,10.80
2019-02-24T11:58:18.094Z,9.50
2019-02-24T12:00:47.937Z,9.87
2019-02-24T12:03:17.787Z,8.40
2019-02-24T12:05:48.484Z,12.63
2019-02-24T12:08:18.461Z,12.50
2019-02-24T12:10:48.581Z,13.30
2019-02-24T12:13:19.293Z,9.15
2019-02-24T12:15:49.092Z,12.03
2019-02-24T12:18:18.790Z,9.67
2019-02-24T12:20:48.469Z,6.67
2019-02-24T12:23:19.101Z,7.83
2019-02-24T12:26:00.756Z,8.70
2019-02-24T12:28:50.154Z,15.23
2019-02-24T12:31:20.009Z,7.70
2019-02-24T12:33:49.689Z,11.13
2019-02-24T12:36:19.389Z,8.53
2019-02-24T12:38:50.274Z,9.17
2019-02-24T12:41:21.361Z,8.40
2019-02-24T12:43:57.181Z,7.63
2019-02-24T12:46:30.985Z,10.20
2019-02-24T12:49:01.047Z,14.50
2019-02-24T12:51:33.745Z,11.73
2019-02-24T12:54:03.875Z,7.53
2019-02-24T12:56:35.987Z,12.07
2019-02-24T12:59:06.153Z,6.97
2019-02-24T13:01:38.237Z,6.30
2019-02-24T13:04:14.074Z,5.10
2019-02-24T13:06:44.097Z,7.30
2019-02-24T13:09:13.933Z,7.20
2019-02-24T13:11:43.941Z,7.47
2019-02-24T13:14:13.782Z,4.07
2019-02-24T13:16:49.537Z,5.47
2019-02-24T13:19:19.369Z,4.47
2019-02-24T13:21:49.061Z,4.40
2019-02-24T13:24:20.013Z,3.50
2019-02-24T13:26:49.857Z,4.00
2019-02-24T13:29:24.265Z,4.00
2019-02-24T13:31:55.250Z,5.93
2019-02-24T13:34:25.907Z,6.03
2019-02-24T13:36:57.099Z,5.50
2019-02-24T13:39:26.926Z,6.53
2019-02-24T13:41:57.867Z,5.83
2019-02-24T13:44:27.769Z,3.93
2019-02-24T13:46:58.607Z,6.63
2019-02-24T13:49:28.437Z,4.40
2019-02-24T13:52:00.814Z,4.20
2019-02-24T13:54:30.500Z,5.80
2019-02-24T13:57:03.453Z,3.50
2019-02-24T13:59:33.149Z,2.93
2019-02-24T14:02:02.875Z,4.30
2019-02-24T14:04:32.841Z,6.07
2019-02-24T14:07:02.929Z,4.27
2019-02-24T14:09:33.727Z,4.00
2019-02-24T14:12:05.298Z,6.00
2019-02-24T14:14:48.842Z,8.47
2019-02-24T14:17:17.117Z,2.97
2019-02-24T14:19:47.058Z,3.57
2019-02-24T14:22:16.921Z,3.80
2019-02-24T14:24:47.600Z,4.73
2019-02-24T14:27:17.559Z,5.20
2019-02-24T14:29:48.658Z,5.40
2019-02-24T14:32:18.953Z,7.90
2019-02-24T14:34:50.010Z,4.53
2019-02-24T14:37:20.103Z,5.87
2019-02-24T14:39:50.198Z,3.90
2019-02-24T14:42:25.254Z,7.97
2019-02-24T14:44:55.109Z,3.83
2019-02-24T14:47:24.894Z,4.77
2019-02-24T14:49:56.621Z,3.40
2019-02-24T14:52:27.474Z,4.30
2019-02-24T14:54:58.787Z,2.53
2019-02-24T14:57:28.639Z,2.87
2019-02-24T14:59:58.325Z,5.43
2019-02-24T15:02:28.949Z,3.87
2019-02-24T15:04:58.909Z,4.73
2019-02-24T15:07:29.737Z,8.73
2019-02-24T15:10:04.678Z,2.53
2019-02-24T15:12:35.714Z,2.67
2019-02-24T15:15:12.844Z,2.70
2019-02-24T15:17:50.978Z,5.17
2019-02-24T15:20:23.339Z,3.00
2019-02-24T15:22:53.248Z,4.33
2019-02-24T15:25:26.194Z,3.07
2019-02-24T15:27:56.167Z,4.13
2019-02-24T15:30:34.610Z,4.30
2019-02-24T15:33:04.682Z,3.63
2019-02-24T15:35:34.645Z,2.53
2019-02-24T15:38:04.985Z,4.43
2019-02-24T15:40:35.081Z,3.63
2019-02-24T15:43:06.154Z,4.40
2019-02-24T15:45:45.086Z,6.83
2019-02-24T15:48:14.798Z,5.53
2019-02-24T15:50:45.449Z,3.37
2019-02-24T15:53:15.410Z,2.17
2019-02-24T15:55:51.390Z,2.77
2019-02-24T15:58:21.253Z,3.97
2019-02-24T16:00:57.900Z,10.40
2019-02-24T16:03:27.765Z,11.33
2019-02-24T16:05:57.745Z,4.87
2019-02-24T16:08:32.029Z,4.70
2019-02-24T16:11:07.751Z,4.60
2019-02-24T16:13:37.855Z,2.77
2019-02-24T16:16:08.018Z,4.00
2019-02-24T16:18:38.773Z,5.43
2019-02-24T16:21:13.088Z,5.80
2019-02-24T16:23:44.197Z,7.60
2019-02-24T16:26:14.315Z,3.70
2019-02-24T16:28:44.129Z,3.93
2019-02-24T16:31:16.154Z,17.77
2019-02-24T16:33:47.182Z,3.33
2019-02-24T16:36:23.061Z,3.00
2019-02-24T16:38:53.051Z,3.13
2019-02-24T16:41:23.149Z,16.20
2019-02-24T16:44:02.343Z,15.70
2019-02-24T16:46:32.447Z,3.63
2019-02-24T16:49:03.439Z,6.93
2019-02-24T16:51:35.233Z,6.13
2019-02-24T16:54:05.005Z,4.13
2019-02-24T16:56:34.979Z,14.83
2019-02-24T16:59:13.674Z,5.13
2019-02-24T17:01:43.642Z,8.97
2019-02-24T17:04:13.737Z,10.43
2019-02-24T17:06:43.821Z,7.10
2019-02-24T17:09:13.774Z,4.53
2019-02-24T17:11:43.881Z,18.33
2019-02-24T17:14:15.611Z,16.20
2019-02-24T17:16:45.437Z,9.03
2019-02-24T17:19:15.128Z,11.63
2019-02-24T17:21:46.150Z,7.95
2019-02-24T17:24:16.240Z,11.13
2019-02-24T17:26:56.410Z,11.65
2019-02-24T17:29:27.945Z,18.95
2019-02-24T17:32:00.631Z,9.55
2019-02-24T17:34:31.757Z,12.35
2019-02-24T17:37:01.866Z,17.87
2019-02-24T17:39:31.717Z,8.30
2019-02-24T17:42:04.645Z,14.18
2019-02-24T17:44:35.430Z,9.83
2019-02-24T17:47:05.328Z,7.00
2019-02-24T17:49:35.301Z,12.73
2019-02-24T17:52:05.621Z,7.35
2019-02-24T17:54:35.457Z,8.93
2019-02-24T17:57:05.477Z,12.95
2019-02-24T17:59:40.544Z,18.77
2019-02-24T18:02:08.469Z,11.20
2019-02-24T18:04:39.529Z,8.38
2019-02-24T18:07:10.298Z,10.28
2019-02-24T18:09:40.292Z,12.30
2019-02-24T18:12:10.107Z,9.33
2019-02-24T18:14:40.073Z,9.83
2019-02-24T18:17:09.934Z,9.50
2019-02-24T18:19:40.106Z,9.55
2019-02-24T18:22:15.471Z,7.53
2019-02-24T18:24:43.745Z,10.65
2019-02-24T18:27:14.937Z,7.33
2019-02-24T18:29:44.897Z,4.78
2019-02-24T18:32:16.777Z,4.22
2019-02-24T18:34:46.629Z,7.62
2019-02-24T18:37:16.889Z,14.23
2019-02-24T18:39:47.018Z,14.50
2019-02-24T18:42:17.204Z,10.65
2019-02-24T18:44:47.064Z,13.53
2019-02-24T18:47:17.061Z,25.05
2019-02-24T18:49:49.119Z,14.55
2019-02-24T18:52:19.945Z,12.33
2019-02-24T18:54:49.661Z,20.95
2019-02-24T18:57:20.495Z,14.63
2019-02-24T18:59:51.597Z,20.50
2019-02-24T19:02:21.701Z,27.67
2019-02-24T19:04:51.811Z,19.20
2019-02-24T19:07:21.677Z,25.32
2019-02-24T19:09:52.285Z,30.85
2019-02-24T19:12:22.017Z,17.92
2019-02-24T19:14:51.756Z,26.12
2019-02-24T19:17:23.085Z,28.10
2019-02-24T19:19:53.348Z,27.17
2019-02-24T19:22:24.104Z,13.70
2019-02-24T19:24:54.117Z,16.95
2019-02-24T19:27:24.236Z,24.98
2019-02-24T19:29:56.240Z,17.30
2019-02-24T19:32:27.072Z,10.25
2019-02-24T19:34:58.033Z,12.15
2019-02-24T19:37:27.933Z,16.87
2019-02-24T19:39:57.934Z,16.35
2019-02-24T19:42:27.777Z,21.42
2019-02-24T19:44:57.473Z,24.07
2019-02-24T19:47:28.244Z,28.12
2019-02-24T19:49:58.233Z,25.57
2019-02-24T19:52:28.491Z,24.75
2019-02-24T19:54:58.522Z,30.65
2019-02-24T19:57:28.753Z,18.10
2019-02-24T19:59:58.585Z,21.95
2019-02-24T20:02:28.538Z,15.48
2019-02-24T20:04:58.660Z,13.70
2019-02-24T20:07:28.497Z,11.33
2019-02-24T20:09:58.181Z,9.93
2019-02-24T20:12:27.889Z,14.38
2019-02-24T20:14:57.605Z,6.65
2019-02-24T20:17:28.470Z,4.28
2019-02-24T20:19:58.570Z,7.72
2019-02-24T20:22:28.668Z,8.75
2019-02-24T20:24:58.802Z,8.83
2019-02-24T20:27:28.906Z,11.30
2019-02-24T20:29:58.745Z,10.85
2019-02-24T20:32:29.634Z,11.95
2019-02-24T20:35:00.445Z,7.35
2019-02-24T20:37:31.707Z,5.53
2019-02-24T20:40:04.633Z,7.40
2019-02-24T20:42:35.377Z,7.58
2019-02-24T20:45:08.416Z,8.13
2019-02-24T20:47:39.119Z,9.73
2019-02-24T20:50:20.385Z,7.05
2019-02-24T20:52:50.250Z,12.33
2019-02-24T20:55:19.961Z,6.90
2019-02-24T20:57:50.887Z,8.40
2019-02-24T21:00:29.005Z,6.17
2019-02-24T21:03:01.306Z,6.80
2019-02-24T21:05:32.001Z,4.70
2019-02-24T21:08:02.122Z,6.80
2019-02-24T21:10:31.993Z,7.92
2019-02-24T21:13:01.707Z,10.68
2019-02-24T21:15:31.677Z,12.13
2019-02-24T21:18:01.565Z,12.75
2019-02-24T21:20:33.354Z,7.92
2019-02-24T21:23:03.329Z,12.75
2019-02-24T21:25:33.181Z,14.10
2019-02-24T21:28:04.106Z,8.63
2019-02-24T21:30:33.966Z,10.32
2019-02-24T21:33:03.716Z,7.67
2019-02-24T21:35:34.675Z,10.95
2019-02-24T21:38:04.517Z,12.60
2019-02-24T21:40:34.247Z,10.70
2019-02-24T21:43:05.239Z,13.18
2019-02-24T21:45:35.340Z,8.88
2019-02-24T21:48:06.391Z,9.35
2019-02-24T21:50:36.269Z,7.47
2019-02-24T21:53:08.153Z,11.57
2019-02-24T21:55:38.310Z,9.25
2019-02-24T21:58:08.410Z,6.35
2019-02-24T22:00:38.532Z,9.05
2019-02-24T22:03:08.650Z,5.90
2019-02-24T22:05:39.668Z,8.63
2019-02-24T22:08:09.505Z,6.10
2019-02-24T22:10:39.481Z,6.35
2019-02-24T22:13:11.255Z,8.23
2019-02-24T22:15:42.267Z,6.42
2019-02-24T22:18:13.068Z,5.28
2019-02-24T22:20:43.050Z,5.53
2019-02-24T22:23:12.901Z,16.67
2019-02-24T22:25:42.880Z,6.12
2019-02-24T22:28:12.985Z,10.68
2019-02-24T22:30:42.685Z,10.35
2019-02-24T22:33:12.413Z,6.78
2019-02-24T22:35:42.109Z,5.83
2019-02-24T22:38:13.081Z,6.53
2019-02-24T22:40:43.199Z,11.25
2019-02-24T22:43:13.113Z,6.37
2019-02-24T22:45:42.893Z,11.83
2019-02-24T22:48:16.906Z,9.28
2019-02-24T22:50:47.942Z,9.25
2019-02-24T22:53:18.068Z,15.25
2019-02-24T22:55:50.067Z,14.40
2019-02-24T22:58:21.077Z,7.35
2019-02-24T23:01:00.429Z,8.00
2019-02-24T23:03:38.259Z,7.40
2019-02-24T23:06:10.529Z,6.20
2019-02-24T23:08:43.649Z,6.05
2019-02-24T23:11:15.742Z,9.65
2019-02-24T23:13:45.923Z,10.48
2019-02-24T23:16:16.917Z,9.43
2019-02-24T23:18:46.846Z,10.32
2019-02-24T23:21:16.804Z,6.95
2019-02-24T23:23:47.864Z,9.25
2019-02-24T23:26:17.960Z,8.93
2019-02-24T23:28:56.089Z,7.22
2019-02-24T23:31:26.813Z,7.53
2019-02-24T23:33:56.766Z,12.33
2019-02-24T23:36:27.516Z,8.05
2019-02-24T23:38:57.494Z,9.70
2019-02-24T23:41:27.606Z,7.78
2019-02-24T23:44:02.333Z,9.98
2019-02-24T23:46:32.166Z,6.05
2019-02-24T23:49:02.018Z,10.10
2019-02-24T23:51:32.057Z,6.00
2019-02-24T23:54:07.773Z,10.13
2019-02-24T23:56:48.973Z,7.97
2019-02-24T23:59:21.401Z,11.68
